Time;durP1;ratioP1;P1;durP2;ratioP2;P2;SDS_P1;SDS_P2;PMS_P1;PMS_P2;Temp;Humidity;BMP_temperature;BMP_pressure;BME280_temperature;BME280_humidity;BME280_pressure;Samples;Min_cycle;Max_cycle;Signal;HPM_P1;HPM_P2
2021/06/04 00:01:11;;;;;;;13.63;7.45;;;;;;;;;;5071668;28;20055;-68
2021/06/04 00:03:37;;;;;;;14.95;7.55;;;;;;;;;;5071100;28;20070;-69
2021/06/04 00:06:05;;;;;;;16.48;8.57;;;;;;;;;;5071764;28;20538;-68
2021/06/04 00:08:31;;;;;;;15.55;7.97;;;;;;;;;;5072527;28;20020;-68
2021/06/04 00:11:02;;;;;;;11.80;7.50;;;;;;;;;;5073676;28;20037;-68
2021/06/04 00:13:34;;;;;;;11.75;6.40;;;;;;;;;;5073470;28;20082;-65
2021/06/04 00:16:05;;;;;;;24.05;8.43;;;;;;;;;;5073702;28;20031;-68
2021/06/04 00:18:32;;;;;;;15.48;7.30;;;;;;;;;;5073349;28;20032;-68
2021/06/04 00:20:59;;;;;;;12.25;5.60;;;;;;;;;;5074570;28;20089;-65
2021/06/04 00:23:25;;;;;;;13.15;6.10;;;;;;;;;;5075465;28;20046;-68
2021/06/04 00:25:52;;;;;;;12.05;6.50;;;;;;;;;;5075084;28;20028;-67
2021/06/04 00:28:18;;;;;;;9.85;6.10;;;;;;;;;;5073752;28;20043;-68
2021/06/04 00:30:44;;;;;;;13.85;7.05;;;460.90;1587.20;;;;;;5074113;28;20094;-68
2021/06/04 00:33:12;;;;;;;15.75;7.32;;;460.80;1587.20;;;;;;5073471;28;20075;-56
2021/06/04 00:35:39;;;;;;;17.15;6.80;;;436.00;1587.20;;;;;;5073394;28;20200;-63
2021/06/04 00:38:06;;;;;;;13.25;6.00;;;436.00;1587.20;;;;;;5073425;28;20013;-66
2021/06/04 00:40:37;;;;;;;11.60;5.70;;;436.00;1587.20;;;;;;5073181;28;20582;-58
2021/06/04 00:43:04;;;;;;;14.27;6.40;;;436.00;1587.20;;;;;;5073183;28;20020;-57
2021/06/04 00:45:33;;;;;;;13.95;6.47;;;435.90;1612.80;;;;;;5073617;28;20073;-57
2021/06/04 00:47:59;;;;;;;10.98;7.00;;;436.00;1587.20;;;;;;5074112;28;20572;-56
2021/06/04 00:50:41;;;;;;;15.30;6.93;;;436.00;1587.20;;;;;;5074869;28;20115;-57
2021/06/04 00:53:07;;;;;;;10.68;6.20;;;436.00;1587.20;;;;;;5074713;28;20440;-57
2021/06/04 00:55:35;;;;;;;12.35;6.95;;;435.90;1587.20;;;;;;5075069;28;20554;-57
2021/06/04 00:58:01;;;;;;;12.85;6.32;;;435.90;1587.20;;;;;;5074222;28;20057;-58
2021/06/04 01:00:41;;;;;;;14.98;6.63;;;435.80;1612.80;;;;;;5074774;28;20028;-57
2021/06/04 01:03:08;;;;;;;15.85;6.10;;;;;;;;;;5074293;28;20017;-56
2021/06/04 01:05:37;;;;;;;12.35;7.05;;;;;;;;;;5075099;28;20027;-61
2021/06/04 01:08:24;;;;;;;14.82;6.47;;;435.80;1612.80;;;;;;5074524;28;20111;-56
2021/06/04 01:11:02;;;;;;;10.20;5.97;;;435.50;1612.80;;;;;;5074527;28;20051;-63
2021/06/04 01:13:35;;;;;;;14.23;6.30;;;;;;;;;;5074452;28;20035;-57
2021/06/04 01:16:12;;;;;;;17.92;6.65;;;;;;;;;;5074691;28;20028;-59
2021/06/04 01:18:44;;;;;;;9.38;6.20;;;;;;;;;;5074310;28;20024;-57
2021/06/04 01:21:30;;;;;;;17.00;6.50;;;;;;;;;;5074009;28;20580;-56
2021/06/04 01:24:02;;;;;;;10.27;6.00;;;;;;;;;;5067278;28;20135;-57
2021/06/04 01:26:28;;;;;;;12.60;6.45;;;;;;;;;;5074019;28;20099;-63
2021/06/04 01:28:56;;;;;;;15.65;6.22;;;;;;;;;;5073955;28;20024;-61
2021/06/04 01:31:31;;;;;;;9.70;6.10;;;;;;;;;;5073911;28;20086;-56
2021/06/04 01:34:07;;;;;;;11.07;6.40;;;;;;;;;;5074257;28;20035;-58
2021/06/04 01:36:38;;;;;;;8.88;6.07;;;;;;;;;;5073749;28;20032;-56
2021/06/04 01:39:07;;;;;;;11.15;6.68;;;;;;;;;;5074185;28;20033;-57
2021/06/04 01:41:33;;;;;;;13.77;7.43;;;;;;;;;;5073690;28;20020;-57
2021/06/04 01:44:03;;;;;;;15.35;9.13;;;;;;;;;;5074118;28;20028;-56
2021/06/04 01:46:32;;;;;;;16.58;9.15;;;;;;;;;;5073762;28;20108;-56
2021/06/04 01:49:01;;;;;;;13.10;7.82;;;;;;;;;;5073459;28;20527;-58
2021/06/04 01:51:35;;;;;;;14.52;7.22;;;;;;;;;;5073765;28;20039;-68
2021/06/04 01:54:01;;;;;;;;;;;;;;;;;;5074165;28;20040;-59
2021/06/04 01:56:32;;;;;;;14.05;7.25;;;;;;;;;;5073820;28;19931;-56
2021/06/04 01:59:03;;;;;;;13.30;7.32;;;435.60;1587.20;;;;;;5073016;28;20083;-60
2021/06/04 02:01:39;;;;;;;11.63;6.50;;;435.30;1612.80;;;;;;5073926;28;20033;-63
2021/06/04 02:04:08;;;;;;;8.10;4.90;;;435.30;1587.20;;;;;;5073217;28;20099;-61
2021/06/04 02:06:34;;;;;;;10.85;6.53;;;435.40;1561.60;;;;;;5073640;28;20024;-59
2021/06/04 02:09:04;;;;;;;11.35;7.45;;;435.30;1612.80;;;;;;5072998;28;20382;-63
2021/06/04 02:11:32;;;;;;;16.10;7.30;;;435.30;1612.80;;;;;;5073672;28;20032;-62
2021/06/04 02:14:01;;;;;;;13.23;7.00;;;410.50;1638.40;;;;;;5072140;28;20062;-56
2021/06/04 02:16:50;;;;;;;8.38;6.15;;;410.50;1638.40;;;;;;5073195;28;20119;-59
2021/06/04 02:19:34;;;;;;;9.48;5.85;;;410.50;1638.40;;;;;;5073041;28;20021;-58
2021/06/04 02:22:19;;;;;;;13.52;5.68;;;435.20;1612.80;;;;;;5073256;28;20024;-57
2021/06/04 02:24:54;;;;;;;7.88;5.30;;;435.20;1612.80;;;;;;5073166;28;20078;-65
2021/06/04 02:27:37;;;;;;;12.75;6.20;;;435.30;1587.20;;;;;;5073133;28;20055;-67
2021/06/04 02:30:20;;;;;;;8.75;5.45;;;435.30;1587.20;;;;;;5072259;28;20040;-61
2021/06/04 02:32:52;;;;;;;11.63;5.32;;;435.30;1587.20;;;;;;5073126;28;20045;-62
2021/06/04 02:35:34;;;;;;;9.93;5.72;;;435.40;1561.60;;;;;;5073283;28;20070;-61
2021/06/04 02:38:17;;;;;;;10.60;6.43;;;435.40;1561.60;;;;;;5072956;28;20052;-57
2021/06/04 02:40:50;;;;;;;11.15;6.03;;;435.20;1587.20;;;;;;5073080;28;20103;-57
2021/06/04 02:43:24;;;;;;;8.52;6.20;;;410.50;1612.80;;;;;;5072539;28;20052;-60
2021/06/04 02:45:55;;;;;;;10.38;6.72;;;410.50;1612.80;;;;;;5073074;28;20025;-57
2021/06/04 02:48:25;;;;;;;14.77;6.30;;;410.50;1638.40;;;;;;5072489;28;20028;-57
2021/06/04 02:50:58;;;;;;;11.85;6.53;;;410.50;1612.80;;;;;;5072483;28;20122;-64
2021/06/04 02:53:39;;;;;;;12.40;6.35;;;410.50;1638.40;;;;;;5072291;28;20032;-67
2021/06/04 02:56:19;;;;;;;10.10;6.50;;;410.40;1638.40;;;;;;5072833;28;20507;-58
2021/06/04 02:58:48;;;;;;;13.20;6.47;;;;;;;;;;5072089;28;20060;-64
2021/06/04 03:01:15;;;;;;;17.77;6.93;;;;;;;;;;5072484;28;20028;-59
2021/06/04 03:03:45;;;;;;;11.75;6.40;;;;;;;;;;5072445;28;20020;-63
2021/06/04 03:06:11;;;;;;;10.93;6.57;;;;;;;;;;5072516;28;20481;-58
2021/06/04 03:08:37;;;;;;;12.45;6.82;;;;;;;;;;5072663;28;20028;-56
2021/06/04 03:11:06;;;;;;;14.63;6.97;;;;;;;;;;5071854;28;20072;-56
2021/06/04 03:13:34;;;;;;;9.27;6.18;;;;;;;;;;5071667;28;20086;-67
2021/06/04 03:16:05;;;;;;;9.65;6.30;;;;;;;;;;5070085;28;20109;-66
2021/06/04 03:18:57;;;;;;;18.00;5.72;;;;;;;;;;5071013;28;20086;-59
2021/06/04 03:21:29;;;;;;;12.05;6.15;;;;;;;;;;5067993;28;20033;-61
2021/06/04 03:23:56;;;;;;;12.10;5.30;;;;;;;;;;5070236;28;20091;-56
2021/06/04 03:26:24;;;;;;;8.10;5.22;;;;;;;;;;5071518;28;20016;-56
2021/06/04 03:28:52;;;;;;;8.57;5.55;;;;;;;;;;5072642;28;20036;-56
2021/06/04 03:31:21;;;;;;;13.55;5.32;;;;;;;;;;5073387;28;20432;-68
2021/06/04 03:33:47;;;;;;;11.88;5.68;;;;;;;;;;5071796;28;20512;-62
2021/06/04 03:36:15;;;;;;;16.30;6.70;;;;;;;;;;5066715;28;20037;-63
2021/06/04 03:38:41;;;;;;;12.38;5.90;;;;;;;;;;5071973;28;20444;-59
2021/06/04 03:41:08;;;;;;;11.48;5.70;;;;;;;;;;5073745;28;20056;-60
2021/06/04 03:43:34;;;;;;;14.65;5.97;;;435.50;1536.00;;;;;;5076713;28;20103;-68
2021/06/04 03:46:00;;;;;;;10.73;5.78;;;435.30;1561.60;;;;;;5075873;28;20098;-58
2021/06/04 03:48:32;;;;;;;9.35;5.47;;;435.30;1561.60;;;;;;5076629;28;20024;-63
2021/06/04 03:51:11;;;;;;;9.75;5.72;;;435.30;1561.60;;;;;;5075971;28;20032;-64
2021/06/04 03:53:37;;;;;;;6.63;5.50;;;435.20;1561.60;;;;;;5076523;28;20024;-63
2021/06/04 03:56:05;;;;;;;14.45;5.60;;;435.20;1561.60;;;;;;5075780;28;20028;-63
2021/06/04 03:58:32;;;;;;;9.85;5.13;;;435.20;1561.60;;;;;;5076074;28;20055;-67
2021/06/04 04:01:04;;;;;;;10.65;5.28;;;435.20;1536.00;;;;;;5076194;28;20472;-57
2021/06/04 04:03:30;;;;;;;9.25;4.70;;;435.20;1536.00;;;;;;5075804;28;20028;-68
2021/06/04 04:05:56;;;;;;;6.13;4.15;;;;;;;;;;5075748;28;20029;-64
2021/06/04 04:08:25;;;;;;;9.85;4.70;;;435.80;1484.80;;;;;;5075723;28;20024;-61
2021/06/04 04:10:52;;;;;;;6.60;4.78;;;435.70;1484.80;;;;;;5075804;28;20041;-66
2021/06/04 04:13:20;;;;;;;14.38;5.22;;;435.70;1510.40;;;;;;5075714;28;20028;-62
2021/06/04 04:15:47;;;;;;;8.07;4.53;;;435.70;1510.40;;;;;;5075832;28;20036;-66
2021/06/04 04:18:13;;;;;;;10.15;4.85;;;436.00;1484.80;;;;;;5075681;28;20100;-67
2021/06/04 04:20:43;;;;;;;11.95;4.82;;;436.10;1484.80;;;;;;5075715;28;20020;-63
2021/06/04 04:23:11;;;;;;;10.90;4.93;;;435.90;1510.40;;;;;;5075595;28;20461;-61
2021/06/04 04:25:40;;;;;;;10.13;4.55;;;435.90;1510.40;;;;;;5075549;28;20289;-67
2021/06/04 04:28:09;;;;;;;8.38;4.68;;;435.90;1510.40;;;;;;5075557;28;20032;-56
2021/06/04 04:30:35;;;;;;;18.17;5.30;;;436.10;1510.40;;;;;;5075442;28;20032;-61
2021/06/04 04:33:02;;;;;;;7.50;5.20;;;436.10;1536.00;;;;;;5075701;28;20545;-66
2021/06/04 04:35:31;;;;;;;14.77;4.90;;;460.80;1561.60;;;;;;5074965;28;20036;-63
2021/06/04 04:37:57;;;;;;;12.05;4.65;;;436.10;1536.00;;;;;;5075287;28;20025;-63
2021/06/04 04:40:31;;;;;;;15.30;5.50;;;436.10;1561.60;;;;;;5075031;28;20032;-63
2021/06/04 04:42:57;;;;;;;17.40;5.95;;;460.80;1587.20;;;;;;5075416;28;20032;-61
2021/06/04 04:45:25;;;;;;;8.55;5.30;;;460.80;1587.20;;;;;;5075209;28;20035;-63
2021/06/04 04:47:52;;;;;;;13.32;5.10;;;460.90;1587.20;;;;;;5075110;28;20381;-59
2021/06/04 04:50:19;;;;;;;20.23;5.57;;;460.90;1612.80;;;;;;5075154;28;20115;-66
2021/06/04 04:52:45;;;;;;;8.05;4.95;;;460.90;1587.20;;;;;;5074496;28;20021;-67
2021/06/04 04:55:12;;;;;;;9.30;4.65;;;461.00;1587.20;;;;;;5075201;28;20078;-60
2021/06/04 04:57:38;;;;;;;9.70;5.30;;;461.20;1561.60;;;;;;5074343;28;20404;-56
2021/06/04 05:00:09;;;;;;;7.75;4.63;;;461.20;1561.60;;;;;;5075106;28;20032;-66
2021/06/04 05:02:35;;;;;;;9.20;4.72;;;461.10;1587.20;;;;;;5074437;28;20016;-59
2021/06/04 05:05:01;;;;;;;14.38;4.65;;;461.10;1587.20;;;;;;5075046;28;20057;-63
2021/06/04 05:07:27;;;;;;;10.93;5.53;;;461.10;1587.20;;;;;;5074587;28;20052;-59
2021/06/04 05:09:53;;;;;;;13.82;5.13;;;461.20;1587.20;;;;;;5073332;28;20071;-59
2021/06/04 05:12:18;;;;;;;11.32;5.43;;;461.20;1612.80;;;;;;5074666;28;20025;-64
2021/06/04 05:14:45;;;;;;;11.68;5.43;;;;;;;;;;5074870;28;20040;-59
2021/06/04 05:17:12;;;;;;;11.60;5.15;;;461.40;1587.20;;;;;;5074693;28;20386;-59
2021/06/04 05:19:42;;;;;;;11.93;4.47;;;461.20;1612.80;;;;;;5074622;28;20036;-60
2021/06/04 05:22:08;;;;;;;8.02;4.78;;;461.20;1612.80;;;;;;5074706;28;20040;-67
2021/06/04 05:24:34;;;;;;;10.95;4.38;;;461.20;1587.20;;;;;;5074260;28;20169;-58
2021/06/04 05:27:00;;;;;;;7.45;3.75;;;461.30;1587.20;;;;;;5074684;28;20104;-61
2021/06/04 05:29:26;;;;;;;9.23;4.38;;;461.30;1587.20;;;;;;5074259;28;20477;-59
2021/06/04 05:31:51;;;;;;;8.07;4.25;;;461.30;1612.80;;;;;;5074351;28;20130;-62
2021/06/04 05:34:18;;;;;;;8.38;4.00;;;461.30;1587.20;;;;;;5074422;28;20103;-59
2021/06/04 05:36:44;;;;;;;8.27;4.22;;;461.60;1587.20;;;;;;5074226;28;20035;-61
2021/06/04 05:39:15;;;;;;;8.45;3.65;;;461.50;1561.60;;;;;;5074356;28;20146;-57
2021/06/04 05:41:43;;;;;;;6.20;3.50;;;461.40;1561.60;;;;;;5073897;28;20024;-59
2021/06/04 05:44:14;;;;;;;12.98;3.58;;;461.50;1561.60;;;;;;5074422;28;20028;-63
2021/06/04 05:46:43;;;;;;;8.27;3.08;;;461.50;1561.60;;;;;;5073787;28;20373;-64
2021/06/04 05:49:09;;;;;;;10.68;3.15;;;461.60;1561.60;;;;;;5074126;28;20111;-58
2021/06/04 05:51:36;;;;;;;8.98;3.10;;;461.60;1536.00;;;;;;5073841;28;20158;-60
2021/06/04 05:54:03;;;;;;;14.68;3.25;;;486.40;1536.00;;;;;;5074043;28;20029;-59
2021/06/04 05:56:29;;;;;;;9.50;3.22;;;486.40;1536.00;;;;;;5073778;28;20094;-67
2021/06/04 05:58:56;;;;;;;10.75;2.78;;;486.50;1510.40;;;;;;5073541;28;20048;-62
2021/06/04 06:01:27;;;;;;;7.13;2.85;;;486.60;1484.80;;;;;;5072454;28;20027;-68
2021/06/04 06:03:53;;;;;;;10.70;3.08;;;486.60;1484.80;;;;;;5072503;28;20035;-61
2021/06/04 06:06:19;;;;;;;8.35;2.78;;;486.70;1484.80;;;;;;5073784;28;20028;-65
2021/06/04 06:08:46;;;;;;;13.48;2.95;;;486.80;1459.20;;;;;;5073277;28;20051;-59
2021/06/04 06:11:14;;;;;;;31.42;27.35;;;486.90;1459.20;;;;;;5071474;28;20398;-68
2021/06/04 06:13:41;;;;;;;13.75;9.23;;;486.90;1484.80;;;;;;5070075;28;20035;-57
2021/06/04 06:16:07;;;;;;;4.53;3.30;;;486.90;1484.80;;;;;;5072897;28;20029;-62
2021/06/04 06:18:34;;;;;;;5.13;2.10;;;487.10;1433.60;;;;;;5072904;28;20074;-63
2021/06/04 06:21:00;;;;;;;8.80;3.17;;;487.20;1433.60;;;;;;5070215;28;20046;-64
2021/06/04 06:23:30;;;;;;;4.75;2.42;;;487.30;1408.00;;;;;;5071292;28;20450;-58
2021/06/04 06:26:01;;;;;;;4.40;2.20;;;512.00;1382.40;;;;;;5072405;28;20024;-57
2021/06/04 06:28:30;;;;;;;12.15;2.95;;;512.20;1382.40;;;;;;5073047;28;20029;-66
2021/06/04 06:30:56;;;;;;;7.35;2.40;;;512.30;1382.40;;;;;;5072451;28;20040;-65
2021/06/04 06:33:22;;;;;;;8.15;2.58;;;512.50;1356.80;;;;;;5071408;28;20412;-68
2021/06/04 06:35:55;;;;;;;5.45;2.00;;;512.70;1305.60;;;;;;5072357;28;20061;-65
2021/06/04 06:38:24;;;;;;;5.30;2.08;;;512.90;1228.80;;;;;;5072545;28;20048;-58
2021/06/04 06:40:50;;;;;;;6.57;2.15;;;537.60;1382.40;;;;;;5071427;28;20150;-64
2021/06/04 06:43:17;;;;;;;10.70;2.72;;;537.80;1254.40;;;;;;5070001;28;20064;-60
2021/06/04 06:45:43;;;;;;;3.83;2.42;;;538.00;1280.00;;;;;;5072742;28;20115;-61
2021/06/04 06:48:11;;;;;;;7.07;2.40;;;538.10;1254.40;;;;;;5071815;28;20025;-59
2021/06/04 06:50:39;;;;;;;6.13;2.10;;;538.10;1331.20;;;;;;5072479;28;20024;-60
2021/06/04 06:53:06;;;;;;;4.70;2.50;;;538.20;1254.40;;;;;;5072360;28;20558;-60
2021/06/04 06:55:34;;;;;;;6.13;2.90;;;538.40;1228.80;;;;;;5069794;28;20033;-66
2021/06/04 06:58:00;;;;;;;5.90;1.85;;;538.50;1305.60;;;;;;5071938;28;20051;-63
2021/06/04 07:00:38;;;;;;;4.20;1.90;;;563.20;1177.60;;;;;;5071481;28;20024;-60
2021/06/04 07:03:05;;;;;;;8.93;2.17;;;563.20;1280.00;;;;;;5070590;28;20076;-65
2021/06/04 07:05:33;;;;;;;10.05;2.75;;;563.30;1228.80;;;;;;5070671;28;20044;-63
2021/06/04 07:07:59;;;;;;;5.82;1.92;;;563.40;1228.80;;;;;;5071806;28;20090;-65
2021/06/04 07:10:29;;;;;;;6.03;2.83;;;563.50;1203.20;;;;;;5072245;28;20041;-67
2021/06/04 07:12:57;;;;;;;8.95;2.60;;;563.60;1177.60;;;;;;5072443;28;20017;-61
2021/06/04 07:15:29;;;;;;;5.22;2.42;;;563.70;1203.20;;;;;;5070194;28;20036;-58
2021/06/04 07:17:58;;;;;;;12.70;2.88;;;563.70;1177.60;;;;;;5072432;28;20027;-67
2021/06/04 07:20:26;;;;;;;6.53;2.60;;;563.80;1177.60;;;;;;5072053;28;20535;-62
2021/06/04 07:22:53;;;;;;;6.07;1.98;;;563.80;1177.60;;;;;;5071232;28;20021;-62
2021/06/04 07:25:19;;;;;;;13.32;2.53;;;563.90;1152.00;;;;;;5071914;28;20028;-61
2021/06/04 07:27:47;;;;;;;9.98;4.47;;;564.00;1126.40;;;;;;5070932;28;20055;-59
2021/06/04 07:30:24;;;;;;;12.50;2.60;;;564.10;1126.40;;;;;;5071676;28;20481;-57
2021/06/04 07:32:51;;;;;;;22.25;3.03;;;564.10;1075.20;;;;;;5072289;28;20032;-57
2021/06/04 07:35:19;;;;;;;6.53;2.17;;;588.80;1152.00;;;;;;5072138;28;20502;-57
2021/06/04 07:37:45;;;;;;;10.40;2.53;;;588.80;1126.40;;;;;;5070489;28;20033;-57
2021/06/04 07:40:19;;;;;;;8.73;2.28;;;588.90;1075.20;;;;;;5071150;28;20047;-59
2021/06/04 07:42:46;;;;;;;5.60;2.10;;;588.80;1126.40;;;;;;5071838;28;20032;-58
2021/06/04 07:45:13;;;;;;;6.65;2.10;;;588.80;1100.80;;;;;;5072443;28;20477;-57
2021/06/04 07:47:39;;;;;;;15.23;2.42;;;588.80;1100.80;;;;;;5070116;28;20089;-58
2021/06/04 07:50:09;;;;;;;18.45;2.72;;;588.80;1100.80;;;;;;5071997;28;20071;-58
2021/06/04 07:52:35;;;;;;;9.95;2.28;;;589.00;1100.80;;;;;;5071985;28;20070;-58
2021/06/04 07:55:02;;;;;;;18.35;1.90;;;589.00;1075.20;;;;;;5072211;28;20048;-59
2021/06/04 07:57:28;;;;;;;8.88;2.00;;;589.10;1075.20;;;;;;5071780;28;20044;-58
2021/06/04 07:59:53;;;;;;;3.85;1.70;;;589.10;1075.20;;;;;;5069974;28;20082;-58
2021/06/04 08:02:19;;;;;;;7.63;2.50;;;589.10;1049.60;;;;;;5072123;28;20024;-62
2021/06/04 08:04:46;;;;;;;7.00;2.05;;;589.20;1049.60;;;;;;5071761;28;20052;-59
2021/06/04 08:07:13;;;;;;;6.75;2.30;;;589.20;1075.20;;;;;;5072531;28;20071;-58
2021/06/04 08:09:42;;;;;;;4.22;2.00;;;589.30;1126.40;;;;;;5069678;28;20074;-57
2021/06/04 08:12:09;;;;;;;2.58;1.92;;;589.30;1024.00;;;;;;5072078;28;20074;-57
2021/06/04 08:14:35;;;;;;;4.90;1.67;;;589.40;1024.00;;;;;;5071657;28;20025;-56
2021/06/04 08:17:01;;;;;;;4.85;2.40;;;589.30;1024.00;;;;;;5072041;28;20485;-57
2021/06/04 08:19:30;;;;;;;6.93;2.47;;;589.30;1100.80;;;;;;5069752;28;20072;-61
2021/06/04 08:21:56;;;;;;;2.70;1.60;;;589.50;998.40;;;;;;5071744;28;20024;-57
2021/06/04 08:24:27;;;;;;;5.43;1.95;;;589.50;1024.00;;;;;;5072049;28;20389;-58
2021/06/04 08:26:54;;;;;;;5.53;2.13;;;589.50;1075.20;;;;;;5072889;28;20466;-58
2021/06/04 08:29:22;;;;;;;3.95;1.80;;;589.50;998.40;;;;;;5075564;28;20028;-57
2021/06/04 08:31:49;;;;;;;7.13;2.47;;;589.50;972.80;;;;;;5072017;28;20434;-58
2021/06/04 08:34:15;;;;;;;4.45;1.83;;;589.60;998.40;;;;;;5075644;28;20032;-57
2021/06/04 08:36:42;;;;;;;6.57;2.38;;;589.60;998.40;;;;;;5075016;28;20024;-57
2021/06/04 08:39:12;;;;;;;4.13;1.63;;;589.70;1024.00;;;;;;5075573;28;20103;-58
2021/06/04 08:41:57;;;;;;;4.00;1.60;;;589.70;1024.00;;;;;;5066296;28;20366;-57
2021/06/04 08:45:07;;;;;;;3.58;1.75;;;614.40;921.60;;;;;;5055603;28;20497;-57
2021/06/04 08:47:35;;;;;;;2.45;1.80;;;589.70;998.40;;;;;;5054917;28;20046;-61
2021/06/04 08:50:32;;;;;;;6.88;2.00;;;589.70;998.40;;;;;;5054847;28;20112;-63
2021/06/04 08:53:36;;;;;;;2.63;1.63;;;614.40;998.40;;;;;;5066436;28;20389;-59
2021/06/04 08:56:07;;;;;;;5.70;2.30;;;614.50;998.40;;;;;;5066474;28;20049;-59
2021/06/04 08:58:43;;;;;;;5.95;1.70;;;614.50;998.40;;;;;;5074582;28;20056;-62
2021/06/04 09:01:19;;;;;;;5.30;1.55;;;614.60;972.80;;;;;;5075068;28;20034;-60
2021/06/04 09:03:57;;;;;;;7.00;1.60;;;614.60;972.80;;;;;;5073020;28;20141;-62
2021/06/04 09:06:23;;;;;;;4.85;1.60;;;614.70;896.00;;;;;;5075465;28;20035;-64
2021/06/04 09:08:49;;;;;;;2.40;1.50;;;614.60;921.60;;;;;;5074752;28;20025;-61
2021/06/04 09:11:34;;;;;;;7.40;2.35;;;614.50;998.40;;;;;;5074885;28;20043;-62
2021/06/04 09:14:00;;;;;;;5.18;1.73;;;614.60;921.60;;;;;;5073095;28;20027;-62
2021/06/04 09:16:35;;;;;;;5.32;1.60;;;614.60;972.80;;;;;;5074590;28;20440;-65
2021/06/04 09:19:24;;;;;;;5.57;2.05;;;614.60;947.20;;;;;;5074865;28;20025;-63
2021/06/04 09:21:51;;;;;;;7.43;1.80;;;614.70;972.80;;;;;;5073982;28;20028;-59
2021/06/04 09:24:36;;;;;;;6.45;1.67;;;614.80;947.20;;;;;;5073055;28;20028;-62
2021/06/04 09:27:02;;;;;;;5.40;2.00;;;614.80;998.40;;;;;;5074220;28;20056;-60
2021/06/04 09:29:30;;;;;;;5.47;1.70;;;614.80;998.40;;;;;;5074605;28;20047;-60
2021/06/04 09:31:59;;;;;;;6.07;1.70;;;614.90;921.60;;;;;;5073728;28;20469;-65
2021/06/04 09:34:26;;;;;;;8.25;2.22;;;614.90;972.80;;;;;;5072607;28;20032;-62
2021/06/04 09:37:05;;;;;;;7.47;2.00;;;614.90;947.20;;;;;;5072448;28;20016;-66
2021/06/04 09:39:40;;;;;;;5.95;1.95;;;614.90;947.20;;;;;;5071626;28;20020;-59
2021/06/04 09:42:06;;;;;;;16.55;2.67;;;614.90;947.20;;;;;;5071789;28;20052;-62
2021/06/04 09:44:33;;;;;;;8.50;2.17;;;615.00;1049.60;;;;;;5074196;28;20056;-68
2021/06/04 09:47:01;;;;;;;10.45;2.63;;;615.00;1049.60;;;;;;5072223;28;20410;-65
2021/06/04 09:49:27;;;;;;;2.92;1.85;;;615.00;947.20;;;;;;5074123;28;20090;-65
2021/06/04 09:51:57;;;;;;;7.57;2.33;;;615.10;921.60;;;;;;5073582;28;20029;-65
2021/06/04 09:54:29;;;;;;;7.60;1.75;;;615.10;972.80;;;;;;5073391;28;20028;-67
2021/06/04 09:57:06;;;;;;;7.30;1.63;;;615.00;998.40;;;;;;5071551;28;20496;-64
2021/06/04 09:59:33;;;;;;;3.03;1.80;;;615.00;972.80;;;;;;5072971;28;20086;-58
2021/06/04 10:01:59;;;;;;;5.63;2.03;;;614.90;947.20;;;;;;5073113;28;20025;-62
2021/06/04 10:04:27;;;;;;;4.15;1.90;;;615.00;998.40;;;;;;5072887;28;20017;-67
2021/06/04 10:07:14;;;;;;;6.55;2.45;;;615.00;998.40;;;;;;5070324;28;20076;-66
2021/06/04 10:09:48;;;;;;;5.10;1.80;;;615.00;998.40;;;;;;5070660;28;20028;-67
2021/06/04 10:12:33;;;;;;;4.60;1.50;;;615.00;972.80;;;;;;5073684;28;20424;-66
2021/06/04 10:15:31;;;;;;;7.45;2.35;;;615.10;972.80;;;;;;5073431;28;20032;-65
2021/06/04 10:20:27;;;;;;;8.82;1.90;;;615.10;921.60;;;;;;5073481;28;20541;-64
2021/06/04 10:23:03;;;;;;;6.63;1.73;;;615.10;972.80;;;;;;5072820;28;20024;-66
2021/06/04 10:25:39;;;;;;;11.80;2.30;;;615.10;921.60;;;;;;5071155;28;20047;-65
2021/06/04 10:28:05;;;;;;;9.05;2.00;;;615.10;947.20;;;;;;5071203;28;20032;-65
2021/06/04 10:30:33;;;;;;;15.15;2.55;;;615.20;921.60;;;;;;5073433;28;20043;-64
2021/06/04 10:33:11;;;;;;;16.33;2.55;;;615.30;947.20;;;;;;5073113;28;20017;-66
2021/06/04 10:35:54;;;;;;;34.60;4.68;;;615.20;972.80;;;;;;5073431;28;20119;-62
2021/06/04 10:38:29;;;;;;;18.00;3.28;;;615.20;998.40;;;;;;5072435;28;20016;-62
2021/06/04 10:41:06;;;;;;;19.48;2.60;;;615.20;998.40;;;;;;5072841;28;20025;-64
2021/06/04 10:43:52;;;;;;;24.98;3.50;;;615.10;998.40;;;;;;5072588;28;20017;-65
2021/06/04 10:46:21;;;;;;;8.10;1.73;;;615.20;896.00;;;;;;5073335;28;20408;-64
2021/06/04 10:48:57;;;;;;;26.45;4.80;;;615.30;870.40;;;;;;5072556;28;20033;-63
2021/06/04 10:51:56;;;;;;;36.30;5.63;;;615.30;972.80;;;;;;5071188;28;20076;-66
2021/06/04 10:55:07;;;;;;;118.60;17.42;;;615.30;896.00;;;;;;5067960;28;20032;-65
2021/06/04 10:58:00;;;;;;;51.22;9.88;;;615.30;921.60;;;;;;5028190;28;20161;-64
2021/06/04 11:00:36;;;;;;;123.07;18.15;;;615.30;972.80;;;;;;5029197;28;20106;-66
2021/06/04 11:03:23;;;;;;;10.77;2.20;;;615.30;947.20;;;;;;5030653;28;20540;-66
2021/06/04 11:06:10;;;;;;;171.63;28.75;;;640.00;896.00;;;;;;5029163;28;20033;-66
2021/06/04 11:09:12;;;;;;;68.85;12.70;;;615.30;972.80;;;;;;5027059;28;20125;-66
2021/06/04 11:12:07;;;;;;;63.65;10.52;;;615.30;921.60;;;;;;5019364;28;20037;-66
2021/06/04 11:15:06;;;;;;;16.42;3.88;;;640.00;921.60;;;;;;5030296;28;20548;-65
2021/06/04 11:17:38;;;;;;;7.00;2.25;;;640.10;921.60;;;;;;5029680;28;20056;-66
2021/06/04 11:20:10;;;;;;;12.45;3.35;;;640.20;921.60;;;;;;5029619;28;20021;-65
2021/06/04 11:22:44;;;;;;;26.88;3.28;;;640.20;844.80;;;;;;5028741;28;20038;-66
2021/06/04 11:25:45;;;;;;;11.98;2.08;;;640.20;896.00;;;;;;5030357;28;20188;-66
2021/06/04 11:28:52;;;;;;;4.32;1.50;;;640.30;844.80;;;;;;5029864;28;20034;-66
2021/06/04 11:31:36;;;;;;;43.42;7.18;;;640.30;844.80;;;;;;5017409;28;20064;-63
2021/06/04 11:34:06;;;;;;;13.98;2.10;;;640.30;870.40;;;;;;5029676;28;20045;-66
2021/06/04 11:36:41;;;;;;;3.72;1.80;;;640.40;793.60;;;;;;5030245;28;20030;-60
2021/06/04 11:39:11;;;;;;;18.13;4.75;;;640.30;793.60;;;;;;5012937;28;20087;-65
2021/06/04 11:41:49;;;;;;;5.88;2.10;;;640.40;870.40;;;;;;5030516;28;20052;-64
2021/06/04 11:44:42;;;;;;;5.43;2.70;;;640.30;768.00;;;;;;5028214;28;20033;-65
2021/06/04 11:47:24;;;;;;;12.00;2.85;;;640.30;870.40;;;;;;5041521;28;20127;-64
2021/06/04 11:49:53;;;;;;;32.47;6.15;;;640.50;972.80;;;;;;5032532;28;20045;-64
2021/06/04 11:52:38;;;;;;;6.53;2.20;;;640.40;896.00;;;;;;5044766;28;20474;-64
2021/06/04 11:55:30;;;;;;;6.70;2.40;;;640.30;896.00;;;;;;5028204;28;20112;-64
2021/06/04 11:57:59;;;;;;;7.55;1.80;;;640.10;870.40;;;;;;5045950;28;20052;-64
2021/06/04 12:00:25;;;;;;;7.50;2.20;;;640.20;819.20;;;;;;5034579;28;20045;-64
2021/06/04 12:03:13;;;;;;;12.93;2.40;;;640.30;819.20;;;;;;5043252;28;20036;-65
2021/06/04 12:05:43;;;;;;;14.80;2.72;;;640.40;819.20;;;;;;5029488;28;20029;-63
2021/06/04 12:08:12;;;;;;;10.60;2.15;;;640.50;819.20;;;;;;5059696;28;20020;-64
2021/06/04 12:10:53;;;;;;;13.30;2.92;;;640.50;742.40;;;;;;5075352;28;20107;-63
2021/06/04 12:13:46;;;;;;;11.90;2.30;;;640.60;819.20;;;;;;5075747;28;20039;-65
2021/06/04 12:19:11;;;;;;;7.53;1.90;;;640.70;742.40;;;;;;5076156;28;20147;-64
2021/06/04 12:21:40;;;;;;;8.75;2.60;;;640.80;819.20;;;;;;5075046;28;20033;-62
2021/06/04 12:24:33;;;;;;;9.63;2.28;;;665.60;844.80;;;;;;5072893;28;20021;-64
2021/06/04 12:27:10;;;;;;;8.07;1.98;;;665.60;844.80;;;;;;5073410;28;20493;-64
2021/06/04 12:29:52;;;;;;;6.97;1.85;;;665.60;793.60;;;;;;5075596;28;20031;-65
2021/06/04 12:32:24;;;;;;;4.55;1.83;;;665.70;819.20;;;;;;5075101;28;20111;-66
2021/06/04 12:34:52;;;;;;;6.80;2.33;;;665.70;793.60;;;;;;5073871;28;20358;-66
2021/06/04 12:37:20;;;;;;;12.60;2.65;;;665.80;844.80;;;;;;5073669;28;20432;-66
2021/06/04 12:40:08;;;;;;;8.10;2.42;;;665.90;819.20;;;;;;5075110;28;20032;-64
2021/06/04 12:42:43;;;;;;;5.80;2.20;;;665.90;793.60;;;;;;5075072;28;20032;-64
2021/06/04 12:45:15;;;;;;;4.25;1.92;;;665.80;793.60;;;;;;5059499;28;20036;-66
2021/06/04 12:48:13;;;;;;;6.55;2.05;;;665.90;768.00;;;;;;5073697;28;20362;-65
2021/06/04 12:50:42;;;;;;;41.97;4.38;;;665.80;768.00;;;;;;5071586;28;20432;-65
2021/06/04 12:53:28;;;;;;;43.92;4.15;;;665.90;896.00;;;;;;5075160;28;20025;-64
2021/06/04 12:55:59;;;;;;;4.30;1.88;;;666.00;844.80;;;;;;5074363;28;20078;-65
2021/06/04 12:58:41;;;;;;;14.25;2.47;;;666.00;768.00;;;;;;5072993;28;20050;-65
2021/06/04 13:01:26;;;;;;;6.13;2.97;;;666.00;819.20;;;;;;5067597;28;20024;-65
2021/06/04 13:03:58;;;;;;;14.35;4.18;;;666.10;793.60;;;;;;5074536;28;20107;-64
2021/06/04 13:06:44;;;;;;;9.15;2.15;;;666.20;870.40;;;;;;5074415;28;20017;-64
2021/06/04 13:09:30;;;;;;;8.43;2.25;;;666.10;819.20;;;;;;5058766;28;20028;-64